Kenington, Connecticut
Current Conditions -  °F | °C
As of 12:15 PM on Friday 24 Oct 2014 (Local Time) from KMMK Reporting Station
Overcast Overcast  
Wind Chill: 54°   Ceiling: 3000
Heat Index: 54°   Visibility: 10mi
Dew Point: 42°   Wind: 17mph
Humidity: 64%   Direction: 330°NNW
Pressure: 29.76"   Gusts: 31mph
Location:  41.611°N, 72.7774°W
Report Text: KMMK 241615Z AUTO 33015G27KT 10SM OVC030 12/06 A2976 RMK AO2 PK WND 32027/1608 T01220056 TSNO $
Loading
Personal Weather Stations






























Interactive Weather Map
Tropical Storm Tracking
New forecast layout! Learn more

10-Day Weather Forecast

Advertisements
Track Severe Weather on mobile